Audley End, United Kingdom
Current Conditions -  °F | °C
As of 12:50 PM on Thursday 18 Dec 2014 (Local Time) from EGUW Reporting Station
Broken Clouds Broken Clouds  
Wind Chill: 57°   Ceiling: 15000
Heat Index: 57°   Visibility: 6mi
Dew Point: 50°   Wind: 26mph
Humidity: 77%   Direction: 240°WSW
Pressure: 29.71"   Gusts: NA
Location:  52.16°N, 0.67°E
Report Text: EGUW 181250Z 24023KT 9999 FEW014 SCT018 BKN150 14/10 Q1006 WHT NOSIG
Loading
Personal Weather Stations






























Interactive Weather Map New forecast layout! Learn more

10-Day Weather Forecast

Advertisements
Track Severe Weather on mobile